Time;durP1;ratioP1;P1;durP2;ratioP2;P2;SDS_P1;SDS_P2;PMS_P1;PMS_P2;Temp;Humidity;BMP_temperature;BMP_pressure;BME280_temperature;BME280_humidity;BME280_pressure;Samples;Min_cycle;Max_cycle;Signal;HPM_P1;HPM_P2
2022/11/14 00:00:13;;;;;;;14.77;9.57;;;14.30;91.20;;;;;;5031203;28;20124;-73
2022/11/14 00:02:39;;;;;;;12.68;9.52;;;14.30;91.20;;;;;;5032041;28;20370;-72
2022/11/14 00:05:06;;;;;;;13.18;10.43;;;14.30;91.10;;;;;;5030440;28;20029;-72
2022/11/14 00:07:33;;;;;;;11.95;9.43;;;14.30;91.10;;;;;;5032653;28;20124;-73
2022/11/14 00:09:59;;;;;;;14.73;10.38;;;14.30;91.10;;;;;;5030669;28;20021;-78
2022/11/14 00:12:25;;;;;;;12.90;10.25;;;14.30;91.10;;;;;;5031917;28;20048;-78
2022/11/14 00:14:51;;;;;;;14.07;10.35;;;14.30;91.20;;;;;;5030873;28;20362;-78
2022/11/14 00:17:17;;;;;;;13.50;10.05;;;14.30;91.10;;;;;;5031824;28;20511;-78
2022/11/14 00:19:42;;;;;;;13.48;10.60;;;14.30;91.10;;;;;;5030477;28;20052;-79
2022/11/14 00:22:08;;;;;;;13.30;10.18;;;14.30;91.20;;;;;;5031882;28;20497;-79
2022/11/14 00:24:34;;;;;;;11.13;9.30;;;14.20;91.20;;;;;;5031549;28;20029;-79
2022/11/14 00:27:00;;;;;;;12.25;9.30;;;13.80;91.10;;;;;;5030948;28;20034;-79
2022/11/14 00:29:26;;;;;;;10.30;9.02;;;14.20;91.20;;;;;;5030152;28;20044;-79
2022/11/14 00:31:55;;;;;;;12.52;9.43;;;14.20;91.10;;;;;;5030722;28;20034;-78
2022/11/14 00:34:21;;;;;;;11.80;9.20;;;14.20;91.00;;;;;;5029875;28;20036;-79
2022/11/14 00:36:47;;;;;;;11.43;8.88;;;14.20;91.00;;;;;;5030104;28;20489;-79
2022/11/14 00:39:14;;;;;;;10.23;8.38;;;14.20;91.10;;;;;;5030519;28;20033;-78
2022/11/14 00:41:40;;;;;;;12.75;9.38;;;14.20;91.10;;;;;;5029453;28;20079;-78
2022/11/14 00:44:06;;;;;;;11.38;9.57;;;14.20;91.10;;;;;;5032030;28;20536;-78
2022/11/14 00:46:33;;;;;;;11.20;8.90;;;14.20;91.20;;;;;;5030227;28;20033;-77
2022/11/14 00:48:58;;;;;;;11.00;8.45;;;14.10;91.20;;;;;;5029298;28;20029;-77
2022/11/14 00:51:24;;;;;;;9.43;7.72;;;14.10;91.10;;;;;;5031059;28;20496;-77
2022/11/14 00:53:50;;;;;;;10.27;8.45;;;14.20;91.20;;;;;;5032131;28;20033;-77
2022/11/14 00:56:15;;;;;;;10.80;8.63;;;14.10;91.10;;;;;;5032125;28;20160;-78
2022/11/14 00:58:41;;;;;;;11.68;9.00;;;14.20;91.10;;;;;;5032285;28;20029;-78
2022/11/14 01:01:07;;;;;;;10.27;8.25;;;14.20;91.10;;;;;;5027899;28;20034;-73
2022/11/14 01:03:32;;;;;;;11.20;9.05;;;14.10;91.10;;;;;;5031678;28;20051;-73
2022/11/14 01:06:04;;;;;;;12.77;9.73;;;14.10;91.10;;;;;;5031943;28;20072;-73
2022/11/14 01:08:30;;;;;;;13.65;9.80;;;14.10;91.10;;;;;;5030086;28;20025;-79
2022/11/14 01:10:55;;;;;;;12.25;9.77;;;14.20;91.10;;;;;;5029609;28;20037;-78
2022/11/14 01:13:21;;;;;;;12.70;9.60;;;14.10;91.10;;;;;;5032241;28;20441;-78
2022/11/14 01:15:48;;;;;;;12.13;9.13;;;14.10;91.30;;;;;;5030614;28;20060;-79
2022/11/14 01:18:16;;;;;;;11.13;8.57;;;14.00;91.10;;;;;;5030681;28;20430;-78
2022/11/14 01:20:44;;;;;;;11.27;8.63;;;14.10;91.10;;;;;;5030363;28;20508;-78
2022/11/14 01:23:11;;;;;;;11.20;8.30;;;14.10;91.10;;;;;;5031696;28;20056;-78
2022/11/14 01:25:38;;;;;;;10.40;8.73;;;14.40;91.20;;;;;;5031506;28;20490;-78
2022/11/14 01:28:12;;;;;;;10.55;8.38;;;14.10;91.10;;;;;;5034327;28;20025;-79
2022/11/14 01:30:38;;;;;;;11.48;8.73;;;14.20;91.10;;;;;;5033487;28;20072;-79
2022/11/14 01:33:05;;;;;;;13.98;9.60;;;14.20;91.10;;;;;;5022400;28;20076;-79
2022/11/14 01:35:32;;;;;;;10.98;8.75;;;14.20;91.20;;;;;;5031747;28;20036;-78
2022/11/14 01:37:57;;;;;;;11.98;9.60;;;14.20;91.20;;;;;;5019678;28;20108;-78
2022/11/14 01:40:23;;;;;;;10.55;9.02;;;14.20;91.20;;;;;;5033128;28;20144;-77
2022/11/14 01:43:17;;;;;;;11.05;8.73;;;14.20;91.30;;;;;;5034746;28;20025;-77
2022/11/14 01:45:52;;;;;;;10.23;7.47;;;14.10;91.20;;;;;;5034243;28;20113;-78
2022/11/14 01:48:26;;;;;;;11.32;8.35;;;14.10;91.30;;;;;;5035289;28;20100;-78
2022/11/14 01:51:04;;;;;;;10.45;7.65;;;14.10;91.30;;;;;;5033602;28;20511;-77
2022/11/14 01:53:30;;;;;;;12.27;9.32;;;14.10;91.40;;;;;;5035796;28;20384;-77
2022/11/14 01:56:02;;;;;;;9.95;7.18;;;14.20;91.40;;;;;;5034351;28;20025;-77
2022/11/14 01:58:30;;;;;;;10.63;8.40;;;14.10;91.40;;;;;;5032944;28;20071;-78
2022/11/14 02:00:57;;;;;;;12.55;8.95;;;14.10;91.50;;;;;;5032597;28;20087;-77
2022/11/14 02:03:23;;;;;;;9.20;7.40;;;14.10;91.40;;;;;;5034636;28;20519;-78
2022/11/14 02:05:49;;;;;;;11.13;8.20;;;14.00;91.40;;;;;;5032995;28;20030;-77
2022/11/14 02:08:16;;;;;;;10.93;7.70;;;14.00;91.50;;;;;;5033836;28;20497;-78
2022/11/14 02:10:42;;;;;;;10.20;7.90;;;14.10;91.60;;;;;;5032703;28;20036;-78
2022/11/14 02:13:08;;;;;;;9.35;7.20;;;14.10;91.60;;;;;;5034272;28;20041;-78
2022/11/14 02:15:34;;;;;;;8.70;6.85;;;14.10;91.60;;;;;;5031090;28;20034;-78
2022/11/14 02:18:01;;;;;;;8.95;7.03;;;14.10;91.50;;;;;;5032354;28;20045;-78
2022/11/14 02:20:31;;;;;;;9.32;7.10;;;14.10;91.50;;;;;;5034005;28;20477;-78
2022/11/14 02:22:57;;;;;;;7.97;7.07;;;14.10;91.30;;;;;;5033648;28;20036;-78
2022/11/14 02:25:22;;;;;;;7.45;6.15;;;14.10;91.50;;;;;;5032265;28;20033;-78
2022/11/14 02:27:49;;;;;;;7.15;6.00;;;14.10;91.50;;;;;;5031926;28;20021;-77
2022/11/14 02:30:19;;;;;;;9.85;7.88;;;14.10;91.50;;;;;;5032572;28;20029;-78
2022/11/14 02:32:45;;;;;;;9.10;7.78;;;14.20;91.50;;;;;;5031557;28;20111;-78
2022/11/14 02:35:11;;;;;;;7.70;6.78;;;14.00;91.30;;;;;;5033923;28;20065;-78
2022/11/14 02:37:37;;;;;;;8.48;6.43;;;13.90;91.50;;;;;;5031477;28;20112;-78
2022/11/14 02:40:04;;;;;;;8.77;6.45;;;13.90;91.50;;;;;;5032455;28;20037;-78
2022/11/14 02:42:29;;;;;;;6.93;5.90;;;13.90;91.60;;;;;;5033464;28;20528;-78
2022/11/14 02:44:55;;;;;;;7.78;6.15;;;14.00;91.60;;;;;;5033404;28;20022;-78
2022/11/14 02:47:23;;;;;;;8.23;6.32;;;14.00;91.60;;;;;;5032175;28;20032;-78
2022/11/14 02:49:49;;;;;;;6.90;5.97;;;14.00;91.50;;;;;;5032910;28;20370;-78
2022/11/14 02:52:15;;;;;;;8.27;6.85;;;14.10;91.50;;;;;;5032906;28;20030;-78
2022/11/14 02:54:41;;;;;;;10.02;7.88;;;14.10;91.50;;;;;;5032888;28;20437;-78
2022/11/14 02:57:07;;;;;;;7.57;6.07;;;14.00;91.20;;;;;;5030676;28;20061;-77
2022/11/14 02:59:32;;;;;;;8.35;6.18;;;14.00;91.40;;;;;;5031705;28;20030;-78
2022/11/14 03:01:58;;;;;;;7.57;6.28;;;14.00;91.50;;;;;;5030459;28;20056;-78
2022/11/14 03:04:24;;;;;;;7.95;5.95;;;14.10;91.40;;;;;;5032592;28;20120;-77
2022/11/14 03:06:49;;;;;;;7.57;6.43;;;14.10;91.20;;;;;;5030781;28;20115;-78
2022/11/14 03:09:17;;;;;;;7.40;6.13;;;14.00;91.20;;;;;;5031553;28;20386;-78
2022/11/14 03:11:42;;;;;;;7.28;5.95;;;14.00;91.40;;;;;;5029902;28;20033;-77
2022/11/14 03:14:08;;;;;;;6.90;5.80;;;14.00;91.40;;;;;;5033777;28;20040;-78
2022/11/14 03:16:34;;;;;;;7.97;6.30;;;14.00;91.60;;;;;;5031021;28;20513;-78
2022/11/14 03:19:00;;;;;;;8.82;6.55;;;14.00;91.30;;;;;;5025465;28;20037;-78
2022/11/14 03:21:25;;;;;;;7.88;5.85;;;14.00;91.40;;;;;;5032232;28;20056;-78
2022/11/14 03:23:51;;;;;;;7.60;6.07;;;14.10;91.30;;;;;;5032651;28;20033;-78
2022/11/14 03:26:17;;;;;;;8.02;6.25;;;14.10;91.20;;;;;;5030784;28;20022;-78
2022/11/14 03:28:43;;;;;;;6.97;5.80;;;14.10;91.20;;;;;;5032217;28;20033;-78
2022/11/14 03:31:11;;;;;;;7.38;5.93;;;14.10;91.20;;;;;;5032346;28;20382;-78
2022/11/14 03:33:37;;;;;;;9.50;6.80;;;14.10;91.20;;;;;;5033043;28;20484;-78
2022/11/14 03:36:04;;;;;;;8.27;6.40;;;14.10;91.30;;;;;;5029834;28;20029;-78
2022/11/14 03:38:30;;;;;;;8.68;6.43;;;14.10;91.20;;;;;;5032414;28;20091;-79
2022/11/14 03:40:57;;;;;;;10.10;7.72;;;14.20;91.10;;;;;;5032386;28;20347;-79
2022/11/14 03:43:24;;;;;;;8.38;6.25;;;14.20;91.10;;;;;;5033286;28;20033;-79
2022/11/14 03:45:49;;;;;;;7.65;6.18;;;14.20;91.10;;;;;;5032243;28;20369;-79
2022/11/14 03:48:15;;;;;;;8.50;6.32;;;14.20;91.00;;;;;;5032537;28;20034;-79
2022/11/14 03:50:42;;;;;;;8.05;5.63;;;14.20;90.90;;;;;;5031726;28;20021;-79
2022/11/14 03:53:09;;;;;;;7.45;5.72;;;14.20;90.90;;;;;;5032964;28;20037;-79
2022/11/14 03:55:34;;;;;;;8.15;6.53;;;14.20;90.80;;;;;;5031923;28;20405;-79
2022/11/14 03:58:00;;;;;;;8.35;7.00;;;14.20;90.80;;;;;;5030447;28;20041;-79
2022/11/14 04:00:27;;;;;;;8.75;6.38;;;14.20;90.60;;;;;;5031387;28;20033;-79
2022/11/14 04:02:54;;;;;;;9.13;6.90;;;14.20;90.80;;;;;;5032280;28;20029;-79
2022/11/14 04:05:20;;;;;;;10.40;7.40;;;14.20;90.80;;;;;;5032222;28;20385;-78
2022/11/14 04:07:46;;;;;;;8.95;6.93;;;14.20;90.70;;;;;;5030035;28;20029;-79
2022/11/14 04:10:12;;;;;;;8.02;6.40;;;14.20;90.70;;;;;;5032044;28;20022;-78
2022/11/14 04:12:37;;;;;;;11.35;8.18;;;14.10;90.50;;;;;;5032336;28;20405;-79
2022/11/14 04:15:04;;;;;;;10.73;6.80;;;14.10;90.60;;;;;;5032217;28;20071;-80
2022/11/14 04:17:29;;;;;;;8.82;6.78;;;14.20;90.70;;;;;;5031225;28;20119;-79
2022/11/14 04:19:55;;;;;;;9.02;6.72;;;14.10;90.50;;;;;;5031883;28;20071;-79
2022/11/14 04:22:21;;;;;;;7.75;6.60;;;14.20;90.50;;;;;;5031254;28;20079;-78
2022/11/14 04:24:46;;;;;;;8.93;6.53;;;14.20;90.40;;;;;;5031545;28;20026;-78
2022/11/14 04:27:20;;;;;;;7.32;6.15;;;14.20;90.20;;;;;;5031925;28;20025;-77
2022/11/14 04:29:46;;;;;;;8.90;6.70;;;14.20;90.40;;;;;;5031770;28;20024;-77
2022/11/14 04:32:11;;;;;;;8.65;6.57;;;14.20;90.40;;;;;;5032566;28;20021;-77
2022/11/14 04:34:38;;;;;;;8.50;7.00;;;14.20;90.40;;;;;;5031085;28;20040;-77
2022/11/14 04:37:04;;;;;;;8.90;6.28;;;14.20;90.30;;;;;;5031971;28;20033;-76
2022/11/14 04:39:30;;;;;;;8.20;6.75;;;14.20;90.20;;;;;;5031272;28;20033;-76
2022/11/14 04:41:55;;;;;;;7.57;5.95;;;14.20;90.30;;;;;;5030386;28;20069;-77
2022/11/14 04:44:21;;;;;;;9.25;6.20;;;14.20;90.30;;;;;;5030901;28;20087;-77
2022/11/14 04:46:46;;;;;;;8.25;5.80;;;14.20;90.30;;;;;;5030927;28;20443;-78
2022/11/14 04:49:12;;;;;;;8.20;6.03;;;14.30;90.30;;;;;;5032079;28;20095;-77
2022/11/14 04:51:38;;;;;;;7.28;5.60;;;14.30;90.30;;;;;;5023077;28;20034;-77
2022/11/14 04:54:04;;;;;;;8.57;5.93;;;14.30;90.30;;;;;;5031409;28;20087;-78
2022/11/14 04:56:30;;;;;;;7.82;5.68;;;14.30;90.10;;;;;;5029902;28;20025;-77
2022/11/14 04:58:55;;;;;;;8.35;6.53;;;14.30;90.10;;;;;;5031486;28;20021;-78
2022/11/14 05:01:21;;;;;;;8.43;6.32;;;14.30;90.10;;;;;;5032903;28;20034;-78
2022/11/14 05:03:47;;;;;;;7.53;6.22;;;14.30;90.10;;;;;;5034948;28;20116;-78
2022/11/14 05:06:13;;;;;;;8.20;5.82;;;14.30;90.10;;;;;;5035407;28;20061;-78
2022/11/14 05:08:38;;;;;;;9.02;5.95;;;14.30;90.10;;;;;;5031844;28;20029;-78
2022/11/14 05:11:04;;;;;;;8.15;6.18;;;14.30;90.10;;;;;;5035296;28;20038;-78
2022/11/14 05:13:30;;;;;;;7.88;6.22;;;14.30;90.10;;;;;;5035294;28;20072;-78
2022/11/14 05:16:00;;;;;;;8.00;6.35;;;14.30;90.20;;;;;;5034375;28;21021;-78
2022/11/14 05:18:25;;;;;;;7.55;6.20;;;14.30;90.20;;;;;;5034530;28;20107;-78
2022/11/14 05:20:51;;;;;;;7.97;6.60;;;14.30;90.20;;;;;;5035365;28;20080;-78
2022/11/14 05:23:21;;;;;;;7.18;5.95;;;14.30;90.20;;;;;;5035006;28;20530;-78
2022/11/14 05:25:57;;;;;;;;;;;14.30;90.20;;;;;;5035057;28;20116;-78
2022/11/14 05:28:22;;;;;;;8.02;6.22;;;14.30;90.20;;;;;;5033994;28;19909;-78
2022/11/14 05:30:48;;;;;;;7.32;5.93;;;14.30;90.20;;;;;;5035114;28;20025;-78
2022/11/14 05:33:13;;;;;;;9.25;6.22;;;14.30;90.30;;;;;;5034904;28;20052;-78
2022/11/14 05:35:39;;;;;;;9.25;7.00;;;14.30;90.20;;;;;;5034855;28;20056;-78
2022/11/14 05:38:05;;;;;;;9.48;6.28;;;14.30;90.40;;;;;;5033666;28;20037;-78
2022/11/14 05:40:30;;;;;;;9.43;6.57;;;14.30;90.40;;;;;;5034336;28;20025;-78
2022/11/14 05:42:56;;;;;;;7.68;5.65;;;14.30;90.40;;;;;;5035525;28;20025;-78
2022/11/14 05:45:22;;;;;;;10.32;6.35;;;14.30;90.40;;;;;;5033904;28;20100;-79
2022/11/14 05:47:47;;;;;;;7.82;5.93;;;14.30;90.40;;;;;;5034089;28;20036;-79
2022/11/14 05:50:15;;;;;;;8.65;5.68;;;14.30;90.60;;;;;;5021357;28;20087;-79
2022/11/14 05:52:40;;;;;;;11.35;5.63;;;14.40;90.30;;;;;;5035437;28;20401;-78
2022/11/14 05:55:06;;;;;;;7.55;4.95;;;14.40;90.30;;;;;;5034085;28;20037;-78
2022/11/14 05:57:32;;;;;;;7.65;5.57;;;14.40;90.40;;;;;;5033359;28;20136;-78
2022/11/14 05:59:58;;;;;;;5.78;4.82;;;14.40;90.50;;;;;;5034007;28;20474;-76
2022/11/14 06:02:31;;;;;;;7.22;5.25;;;14.40;90.40;;;;;;5034688;28;20469;-76
2022/11/14 06:04:58;;;;;;;6.18;4.88;;;14.40;90.40;;;;;;5029030;28;20422;-76
2022/11/14 06:07:24;;;;;;;4.88;4.05;;;14.40;90.50;;;;;;5032088;28;20080;-77
2022/11/14 06:09:49;;;;;;;5.90;4.72;;;14.40;90.70;;;;;;5032889;28;20053;-76
2022/11/14 06:12:15;;;;;;;7.57;4.45;;;14.40;90.40;;;;;;5017856;28;20087;-76
2022/11/14 06:14:41;;;;;;;3.85;3.45;;;14.40;90.40;;;;;;5032606;28;20108;-76
2022/11/14 06:17:06;;;;;;;5.20;3.75;;;14.40;90.30;;;;;;5032677;28;20398;-76
2022/11/14 06:19:32;;;;;;;5.90;3.78;;;14.30;90.10;;;;;;5031825;28;20219;-79
2022/11/14 06:21:57;;;;;;;4.97;3.60;;;14.20;90.30;;;;;;5033397;28;20061;-79
2022/11/14 06:24:23;;;;;;;4.90;3.53;;;14.20;90.50;;;;;;5017776;28;20030;-79
2022/11/14 06:26:49;;;;;;;4.35;3.60;;;14.20;90.60;;;;;;5031525;28;20132;-79
2022/11/14 06:29:14;;;;;;;4.18;3.35;;;14.20;90.60;;;;;;5033401;28;20147;-78
2022/11/14 06:31:40;;;;;;;4.82;3.28;;;14.10;90.60;;;;;;5028283;28;20389;-79
2022/11/14 06:34:06;;;;;;;4.40;3.40;;;14.00;90.60;;;;;;5032453;22;20798;-78
2022/11/14 06:36:32;;;;;;;4.78;3.58;;;14.00;90.70;;;;;;5010429;28;20371;-80
2022/11/14 06:38:58;;;;;;;5.95;3.90;;;14.00;90.70;;;;;;4999086;28;20390;-80
2022/11/14 06:41:24;;;;;;;3.55;3.00;;;14.00;90.50;;;;;;5010971;28;20029;-80
2022/11/14 06:43:54;;;;;;;6.10;3.40;;;14.00;90.80;;;;;;5012302;28;20375;-79
2022/11/14 06:46:22;;;;;;;5.22;3.10;;;14.00;91.10;;;;;;5008393;28;20041;-80
2022/11/14 06:48:49;;;;;;;5.10;3.50;;;13.90;90.70;;;;;;5003626;28;20030;-75
2022/11/14 06:51:16;;;;;;;4.28;3.28;;;14.00;90.80;;;;;;5008049;28;20045;-75
2022/11/14 06:53:42;;;;;;;7.28;4.00;;;13.90;91.00;;;;;;5009893;28;20059;-73
2022/11/14 06:56:13;;;;;;;5.13;4.03;;;13.90;91.00;;;;;;5010864;28;20036;-79
2022/11/14 06:58:41;;;;;;;4.30;3.22;;;13.90;91.10;;;;;;5013334;28;20394;-79
2022/11/14 07:01:10;;;;;;;4.28;3.45;;;13.90;91.20;;;;;;5012175;28;20034;-73
2022/11/14 07:03:46;;;;;;;3.40;2.90;;;13.90;91.10;;;;;;5007901;28;20027;-79
2022/11/14 07:06:14;;;;;;;5.95;3.38;;;13.90;91.10;;;;;;5011997;28;20032;-79
2022/11/14 07:08:40;;;;;;;4.63;3.05;;;13.90;91.10;;;;;;5012854;28;20053;-80
2022/11/14 07:11:09;;;;;;;4.70;3.70;;;13.80;91.20;;;;;;5010807;28;20029;-80
2022/11/14 07:13:35;;;;;;;4.85;3.50;;;13.80;91.30;;;;;;5012450;28;20117;-80
2022/11/14 07:16:01;;;;;;;4.10;3.10;;;13.80;91.40;;;;;;5009970;28;20386;-80
2022/11/14 07:18:29;;;;;;;3.42;2.95;;;13.80;91.30;;;;;;4998416;28;20034;-80
2022/11/14 07:21:05;;;;;;;4.00;3.25;;;14.00;91.10;;;;;;5003499;28;20034;-80
2022/11/14 07:23:32;;;;;;;3.30;3.00;;;14.00;91.30;;;;;;5008362;28;20320;-81
2022/11/14 07:26:03;;;;;;;3.45;2.85;;;14.10;91.30;;;;;;5013664;28;20105;-81
2022/11/14 07:28:30;;;;;;;4.43;2.97;;;14.10;90.80;;;;;;5011155;28;20092;-79
2022/11/14 07:30:56;;;;;;;2.85;2.55;;;14.20;91.00;;;;;;5012282;28;20033;-75
2022/11/14 07:33:22;;;;;;;5.72;3.17;;;14.30;91.00;;;;;;5011994;28;20053;-74
2022/11/14 07:35:48;;;;;;;3.17;2.67;;;14.30;91.00;;;;;;5014363;28;20076;-75
2022/11/14 07:38:14;;;;;;;2.70;2.50;;;14.40;90.90;;;;;;5027982;28;20666;-81
2022/11/14 07:40:40;;;;;;;5.00;3.00;;;14.40;90.90;;;;;;5011358;28;20075;-74
2022/11/14 07:43:06;;;;;;;3.95;2.90;;;14.50;90.80;;;;;;5012425;28;20041;-74
2022/11/14 07:45:32;;;;;;;3.97;3.20;;;;;;;;;;5011100;28;20068;-75
2022/11/14 07:48:00;;;;;;;3.53;2.58;;;14.50;90.60;;;;;;5010768;28;20037;-82
2022/11/14 07:50:27;;;;;;;4.13;3.25;;;14.50;90.50;;;;;;5012298;28;20033;-75
2022/11/14 07:52:56;;;;;;;3.40;2.77;;;14.50;90.40;;;;;;5013840;28;20056;-75
2022/11/14 07:55:22;;;;;;;5.03;3.47;;;14.40;90.40;;;;;;5013599;28;20068;-76
2022/11/14 07:57:52;;;;;;;4.13;3.15;;;14.40;90.60;;;;;;5013909;28;20033;-82
2022/11/14 08:00:18;;;;;;;3.85;3.22;;;14.40;90.60;;;;;;5011226;28;20034;-81
2022/11/14 08:02:45;;;;;;;4.35;3.28;;;14.50;90.60;;;;;;5010963;28;20371;-80
2022/11/14 08:05:11;;;;;;;4.70;3.03;;;14.50;90.50;;;;;;4996258;28;20033;-82
2022/11/14 08:07:37;;;;;;;5.22;3.15;;;14.50;90.70;;;;;;5013558;28;20030;-81
2022/11/14 08:10:03;;;;;;;4.45;3.30;;;14.50;90.40;;;;;;5009091;28;20363;-82
2022/11/14 08:12:30;;;;;;;3.47;2.83;;;14.50;90.60;;;;;;5013245;28;20046;-79
2022/11/14 08:14:56;;;;;;;4.20;3.22;;;14.50;90.40;;;;;;5012989;28;20037;-76
2022/11/14 08:17:23;;;;;;;3.42;3.10;;;14.60;90.60;;;;;;5013119;28;20038;-75
2022/11/14 08:19:48;;;;;;;4.70;3.28;;;14.60;90.50;;;;;;5011375;28;20034;-80
2022/11/14 08:22:14;;;;;;;4.68;2.97;;;14.50;90.40;;;;;;4999385;28;20085;-78
2022/11/14 08:24:40;;;;;;;4.22;2.92;;;14.60;90.60;;;;;;4994923;28;20015;-75
2022/11/14 08:27:06;;;;;;;3.85;2.80;;;14.50;90.40;;;;;;4997001;28;20030;-74
2022/11/14 08:29:31;;;;;;;3.95;3.05;;;14.40;90.50;;;;;;4993700;28;20532;-75
2022/11/14 08:31:57;;;;;;;4.90;3.08;;;14.50;90.70;;;;;;5005528;28;20029;-74
2022/11/14 08:34:24;;;;;;;4.22;3.25;;;14.40;90.70;;;;;;4996961;28;20406;-74
2022/11/14 08:36:50;;;;;;;2.90;2.58;;;14.40;90.70;;;;;;5005183;28;20089;-76
2022/11/14 08:39:16;;;;;;;3.65;2.65;;;14.40;90.70;;;;;;5015338;28;20030;-79
2022/11/14 08:41:41;;;;;;;3.65;2.83;;;14.40;90.80;;;;;;5015013;28;20532;-80
2022/11/14 08:44:07;;;;;;;3.33;2.42;;;14.40;90.70;;;;;;5010736;28;20546;-79
2022/11/14 08:46:33;;;;;;;3.28;2.70;;;14.40;90.60;;;;;;5003851;28;20030;-79
2022/11/14 08:48:59;;;;;;;5.53;2.88;;;14.50;90.80;;;;;;5009261;28;20030;-74
2022/11/14 08:51:25;;;;;;;3.35;2.60;;;14.50;90.60;;;;;;5004597;28;20018;-74
2022/11/14 08:53:51;;;;;;;4.50;3.13;;;14.50;90.70;;;;;;5003374;28;20030;-80
2022/11/14 08:56:17;;;;;;;3.05;2.58;;;14.50;90.40;;;;;;5006468;28;20018;-74
2022/11/14 08:58:43;;;;;;;3.30;2.60;;;14.50;90.60;;;;;;5009063;28;20037;-72
2022/11/14 09:01:08;;;;;;;3.40;2.63;;;14.50;90.50;;;;;;5005415;28;20475;-80
2022/11/14 09:03:34;;;;;;;4.18;3.13;;;14.60;90.50;;;;;;5004269;28;20080;-77
2022/11/14 09:06:02;;;;;;;3.88;2.60;;;;;;;;;;5009031;28;20026;-80
2022/11/14 09:08:29;;;;;;;3.38;2.63;;;14.70;90.40;;;;;;5003766;28;20068;-74
2022/11/14 09:10:55;;;;;;;3.08;2.50;;;14.70;90.40;;;;;;5004281;28;20097;-79
2022/11/14 09:13:21;;;;;;;3.28;2.72;;;14.80;90.40;;;;;;5007574;28;20478;-79
2022/11/14 09:15:47;;;;;;;3.15;2.75;;;14.80;90.60;;;;;;5004935;28;20057;-74
2022/11/14 09:18:14;;;;;;;3.97;3.45;;;14.90;90.30;;;;;;5000383;28;20113;-74
2022/11/14 09:20:44;;;;;;;4.25;2.88;;;14.90;90.10;;;;;;5004465;28;20026;-74
2022/11/14 09:23:10;;;;;;;;;;;15.40;90.50;;;;;;5004189;28;20030;-78
2022/11/14 09:25:37;;;;;;;2.97;2.25;;;14.90;90.30;;;;;;5013671;28;19963;-79
2022/11/14 09:28:05;;;;;;;3.63;2.38;;;14.90;90.30;;;;;;5006537;28;20113;-80
2022/11/14 09:30:31;;;;;;;4.22;2.53;;;15.00;90.20;;;;;;5010662;28;20172;-79
2022/11/14 09:33:04;;;;;;;3.53;2.78;;;14.90;89.40;;;;;;5005913;28;20100;-79
2022/11/14 09:35:30;;;;;;;3.20;2.70;;;14.90;90.00;;;;;;5003969;28;20061;-79
2022/11/14 09:38:07;;;;;;;6.60;3.15;;;14.80;90.00;;;;;;5007209;28;20026;-74
2022/11/14 09:40:57;;;;;;;4.45;2.72;;;;;;;;;;5010035;28;20030;-75
2022/11/14 09:43:31;;;;;;;3.10;2.22;;;15.10;90.10;;;;;;5004262;28;20041;-81
2022/11/14 09:45:57;;;;;;;5.00;2.80;;;15.00;90.20;;;;;;5009675;28;20118;-83
2022/11/14 09:48:33;;;;;;;3.90;2.42;;;15.10;90.20;;;;;;5003669;28;20105;-76
2022/11/14 09:51:12;;;;;;;4.00;2.90;;;15.20;90.10;;;;;;5006637;28;20079;-78
2022/11/14 09:53:47;;;;;;;4.05;2.72;;;15.20;90.10;;;;;;4998298;28;20379;-81
2022/11/14 09:56:18;;;;;;;3.70;2.75;;;15.30;89.60;;;;;;5001710;28;20038;-80
2022/11/14 09:58:48;;;;;;;4.07;3.28;;;15.40;90.00;;;;;;5002890;28;20034;-78
2022/11/14 10:01:47;;;;;;;4.50;3.35;;;15.30;89.40;;;;;;5010986;28;20065;-76
2022/11/14 10:04:40;;;;;;;4.15;2.67;;;15.40;89.30;;;;;;5004720;28;20053;-78
2022/11/14 10:07:41;;;;;;;3.85;2.60;;;15.50;89.40;;;;;;5000270;28;20095;-80
2022/11/14 10:10:52;;;;;;;3.45;2.90;;;15.70;89.30;;;;;;5003924;28;20026;-80
2022/11/14 10:13:43;;;;;;;3.47;2.70;;;15.90;88.90;;;;;;4990426;28;20047;-81
2022/11/14 10:16:14;;;;;;;3.03;2.53;;;16.00;87.80;;;;;;5002986;28;20038;-77
2022/11/14 10:19:11;;;;;;;4.35;3.45;;;16.20;88.30;;;;;;5010018;28;20022;-73
2022/11/14 10:22:02;;;;;;;5.40;2.85;;;16.40;87.00;;;;;;5012810;28;20379;-82
2022/11/14 10:24:55;;;;;;;3.67;2.70;;;16.60;86.90;;;;;;5009165;28;20033;-82
2022/11/14 10:27:45;;;;;;;2.72;2.20;;;16.70;84.80;;;;;;5011227;28;20026;-82
2022/11/14 10:30:15;;;;;;;2.38;1.90;;;16.80;86.10;;;;;;5000144;28;20588;-77
2022/11/14 10:33:08;;;;;;;2.70;2.33;;;16.90;85.70;;;;;;5012907;28;20427;-76
2022/11/14 10:36:00;;;;;;;3.92;2.75;;;16.90;85.70;;;;;;4999714;28;20037;-77
2022/11/14 10:38:37;;;;;;;4.18;2.40;;;16.90;85.00;;;;;;5010009;28;20046;-77
2022/11/14 10:41:05;;;;;;;3.13;2.25;;;;;;;;;;5014464;28;20041;-77
2022/11/14 10:43:34;;;;;;;3.97;2.38;;;16.80;85.10;;;;;;5001166;28;20482;-79
2022/11/14 10:46:27;;;;;;;5.88;2.92;;;16.80;85.50;;;;;;5011158;28;20163;-77
2022/11/14 10:48:53;;;;;;;6.68;2.25;;;16.70;85.00;;;;;;5008277;28;20117;-76
2022/11/14 10:51:24;;;;;;;3.85;2.42;;;16.60;84.70;;;;;;5010584;28;20113;-77
2022/11/14 10:53:59;;;;;;;3.13;2.45;;;16.60;85.50;;;;;;4997325;28;20529;-76
2022/11/14 10:56:25;;;;;;;2.72;2.20;;;;;;;;;;5007944;28;20026;-76
2022/11/14 10:58:51;;;;;;;3.35;2.28;;;;;;;;;;5012666;28;20109;-79
2022/11/14 11:01:34;;;;;;;3.33;2.28;;;16.50;85.60;;;;;;4992627;28;20561;-77
2022/11/14 11:04:12;;;;;;;2.42;2.22;;;16.50;86.10;;;;;;5014479;28;20480;-77
2022/11/14 11:06:38;;;;;;;3.58;2.30;;;16.50;86.20;;;;;;5013646;28;20092;-77
2022/11/14 11:12:00;;;;;;;2.95;2.25;;;16.40;86.30;;;;;;5000903;28;20032;-79
2022/11/14 11:14:28;;;;;;;2.70;2.38;;;16.40;86.50;;;;;;5014181;28;20030;-79
2022/11/14 11:17:14;;;;;;;5.43;2.63;;;16.40;86.50;;;;;;5014048;28;20091;-77
2022/11/14 11:19:46;;;;;;;4.28;2.53;;;16.40;85.90;;;;;;4997487;28;20064;-81
2022/11/14 11:22:37;;;;;;;2.58;2.00;;;16.40;86.50;;;;;;5012661;28;20037;-80
2022/11/14 11:25:21;;;;;;;5.47;2.22;;;16.40;86.60;;;;;;5012698;28;20042;-81
2022/11/14 11:28:06;;;;;;;3.47;2.58;;;16.50;86.30;;;;;;4999152;28;20037;-81
2022/11/14 11:30:33;;;;;;;2.55;2.28;;;16.50;86.30;;;;;;5014084;28;20021;-80
2022/11/14 11:33:21;;;;;;;3.17;2.60;;;16.60;86.10;;;;;;5013901;28;20034;-80
2022/11/14 11:35:49;;;;;;;2.75;1.98;;;16.70;86.10;;;;;;5008125;28;20034;-80
2022/11/14 11:38:16;;;;;;;3.47;2.33;;;16.70;86.00;;;;;;5001972;28;20059;-80
2022/11/14 11:40:49;;;;;;;3.15;2.42;;;16.70;86.50;;;;;;5013773;28;20041;-81
2022/11/14 11:43:33;;;;;;;3.70;2.58;;;16.80;86.30;;;;;;5013358;28;20052;-80
2022/11/14 11:46:05;;;;;;;3.47;2.55;;;16.80;86.00;;;;;;4999711;28;20474;-80
2022/11/14 11:48:37;;;;;;;3.05;2.35;;;16.80;85.90;;;;;;5013027;28;20030;-80
2022/11/14 11:51:09;;;;;;;3.25;2.03;;;16.80;86.10;;;;;;5012463;28;20446;-77
2022/11/14 11:53:44;;;;;;;2.58;2.05;;;16.70;86.30;;;;;;5013810;28;20037;-78
2022/11/14 11:56:23;;;;;;;2.47;2.00;;;16.70;85.90;;;;;;5012490;28;20367;-80
2022/11/14 11:59:32;;;;;;;3.55;2.50;;;16.70;86.10;;;;;;5003819;28;20019;-79
2022/11/14 12:02:12;;;;;;;2.30;1.77;;;16.70;86.40;;;;;;4999774;28;20030;-78
2022/11/14 12:04:38;;;;;;;;;;;16.70;86.10;;;;;;5005674;28;20432;-79
2022/11/14 12:07:11;;;;;;;3.15;2.47;;;16.60;86.70;;;;;;4995998;28;19949;-79
2022/11/14 12:09:40;;;;;;;3.38;2.25;;;14.70;85.10;;;;;;4999468;28;20039;-79
2022/11/14 12:12:19;;;;;;;3.73;2.40;;;16.60;86.60;;;;;;4998605;28;20033;-78
2022/11/14 12:15:23;;;;;;;2.92;2.20;;;16.60;86.20;;;;;;5011968;28;20034;-79
2022/11/14 12:18:13;;;;;;;2.38;2.05;;;16.60;86.20;;;;;;5001721;28;20050;-80
2022/11/14 12:20:51;;;;;;;;;;;16.60;86.80;;;;;;5012643;28;20026;-77
2022/11/14 12:23:16;;;;;;;2.47;2.03;;;16.60;86.60;;;;;;5013450;28;19913;-78
2022/11/14 12:26:04;;;;;;;3.85;2.05;;;16.50;86.80;;;;;;5012970;28;20390;-79
2022/11/14 12:28:36;;;;;;;5.25;2.30;;;16.60;87.40;;;;;;5012774;28;20041;-79
2022/11/14 12:31:05;;;;;;;2.55;2.08;;;16.50;86.90;;;;;;5010683;28;20061;-79
2022/11/14 12:33:38;;;;;;;3.75;1.80;;;16.50;87.40;;;;;;5012251;28;20049;-77
2022/11/14 12:36:08;;;;;;;4.20;2.35;;;16.60;87.20;;;;;;4999417;28;20034;-80
2022/11/14 12:38:53;;;;;;;4.22;2.28;;;16.60;87.30;;;;;;5013207;28;20109;-80
2022/11/14 12:41:31;;;;;;;3.03;2.05;;;16.80;87.10;;;;;;5003165;28;20550;-81
2022/11/14 12:44:16;;;;;;;2.75;2.00;;;17.00;87.30;;;;;;4993572;28;20050;-80
2022/11/14 12:47:04;;;;;;;2.20;2.00;;;17.00;87.50;;;;;;4992372;28;20026;-79
2022/11/14 12:49:55;;;;;;;3.60;2.40;;;17.00;86.10;;;;;;5007316;28;20022;-81
2022/11/14 12:52:39;;;;;;;2.88;1.92;;;17.00;86.30;;;;;;4992128;28;20042;-80
2022/11/14 12:55:23;;;;;;;3.00;1.98;;;17.00;85.40;;;;;;5003702;28;20026;-79
2022/11/14 12:58:11;;;;;;;3.40;1.92;;;17.00;86.00;;;;;;5002979;28;20038;-79
2022/11/14 13:01:03;;;;;;;3.15;2.22;;;17.00;85.80;;;;;;5006969;28;20089;-79
2022/11/14 13:03:44;;;;;;;2.80;2.30;;;17.00;86.10;;;;;;4991552;28;20438;-80